Time;durP1;ratioP1;P1;durP2;ratioP2;P2;SDS_P1;SDS_P2;PMS_P1;PMS_P2;Temp;Humidity;BMP_temperature;BMP_pressure;BME280_temperature;BME280_humidity;BME280_pressure;Samples;Min_cycle;Max_cycle;Signal;HPM_P1;HPM_P2
2023/04/30 00:02:58;;;;;;;11.60;7.00;;;;;12.00;96526.00;;;;8275559;28;20635;-73
2023/04/30 00:07:04;;;;;;;13.50;7.60;;;;;11.90;96521.00;;;;8277289;28;20201;-72
2023/04/30 00:11:08;;;;;;;11.93;6.85;;;;;11.90;96527.00;;;;8251964;28;20385;-73
2023/04/30 00:15:13;;;;;;;8.40;6.63;;;;;11.90;96528.00;;;;8258489;28;20290;-73
2023/04/30 00:19:17;;;;;;;10.05;7.03;;;;;11.80;96525.00;;;;8278153;28;20312;-73
2023/04/30 00:23:21;;;;;;;16.58;7.18;;;;;11.80;96527.00;;;;8272433;28;20198;-73
2023/04/30 00:27:24;;;;;;;10.32;7.03;;;;;11.80;96521.00;;;;8284143;28;20203;-73
2023/04/30 00:31:27;;;;;;;8.38;6.50;;;;;11.70;96523.00;;;;8261750;28;20841;-72
2023/04/30 00:35:32;;;;;;;9.93;7.05;;;;;11.70;96523.00;;;;8288052;28;20200;-72
2023/04/30 00:39:37;;;;;;;11.90;7.88;;;;;11.70;96526.00;;;;8285771;28;20216;-72
2023/04/30 00:43:43;;;;;;;11.23;7.90;;;;;11.70;96521.00;;;;8288398;28;20206;-73
2023/04/30 00:48:00;;;;;;;9.77;7.32;;;;;11.60;96529.00;;;;8266524;28;20198;-74
2023/04/30 00:52:03;;;;;;;13.13;8.60;;;;;11.70;96539.00;;;;8281459;28;20673;-73
2023/04/30 00:56:09;;;;;;;12.50;7.90;;;;;11.70;96536.00;;;;8270214;28;20205;-73
2023/04/30 01:00:15;;;;;;;11.27;7.75;;;;;11.70;96540.00;;;;8276745;28;20191;-72
2023/04/30 01:04:18;;;;;;;10.23;8.10;;;;;11.70;96553.00;;;;8278065;28;20286;-72
2023/04/30 01:08:22;;;;;;;11.75;8.35;;;;;11.70;96548.00;;;;8274917;28;20294;-73
2023/04/30 01:12:37;;;;;;;10.10;8.20;;;;;11.70;96550.00;;;;8285141;28;20203;-73
2023/04/30 01:16:47;;;;;;;10.05;7.82;;;;;11.70;96559.00;;;;8276833;28;20244;-73
2023/04/30 01:20:54;;;;;;;12.57;8.65;;;;;11.70;96564.00;;;;8287418;28;20826;-73
2023/04/30 01:25:11;;;;;;;11.80;8.32;;;;;11.70;96558.00;;;;8281099;28;20209;-73
2023/04/30 01:29:22;;;;;;;12.77;8.70;;;;;11.60;96558.00;;;;8262646;28;20229;-73
2023/04/30 01:33:27;;;;;;;11.48;8.20;;;;;11.60;96555.00;;;;8274922;28;20206;-73
2023/04/30 01:37:40;;;;;;;12.75;8.70;;;;;11.60;96566.00;;;;8278493;28;20276;-73
2023/04/30 01:41:54;;;;;;;15.27;9.27;;;;;11.60;96578.00;;;;8279988;28;20207;-73
2023/04/30 01:46:10;;;;;;;11.25;8.77;;;;;11.50;96577.00;;;;8279818;28;20196;-73
2023/04/30 01:50:24;;;;;;;13.65;8.75;;;;;11.50;96578.00;;;;8267584;28;20232;-73
2023/04/30 01:54:39;;;;;;;14.10;9.43;;;;;11.50;96575.00;;;;8271289;28;20252;-73
2023/04/30 01:58:43;;;;;;;13.10;9.55;;;;;11.50;96584.00;;;;8262081;28;20833;-72
2023/04/30 02:02:50;;;;;;;15.90;9.63;;;;;11.40;96575.00;;;;8269624;28;20226;-73
2023/04/30 02:06:57;;;;;;;15.23;10.65;;;;;11.40;96582.00;;;;8264592;28;20226;-73
2023/04/30 02:11:00;;;;;;;14.10;9.90;;;;;11.40;96588.00;;;;8271611;28;20658;-72
2023/04/30 02:15:05;;;;;;;12.73;9.07;;;;;11.40;96586.00;;;;8262392;28;20198;-73
2023/04/30 02:19:10;;;;;;;17.45;9.55;;;;;11.40;96587.00;;;;8263083;28;20228;-73
2023/04/30 02:23:13;;;;;;;13.13;9.27;;;;;11.40;96583.00;;;;8263446;28;20197;-72
2023/04/30 02:27:16;;;;;;;15.80;9.93;;;;;11.30;96581.00;;;;8270414;28;20205;-72
2023/04/30 02:31:22;;;;;;;12.98;9.25;;;;;11.30;96582.00;;;;8267660;28;20214;-73
2023/04/30 02:35:29;;;;;;;15.48;10.10;;;;;11.40;96594.00;;;;8263659;28;20208;-73
2023/04/30 02:39:32;;;;;;;13.63;9.95;;;;;11.30;96593.00;;;;8273884;28;20201;-73
2023/04/30 02:43:41;;;;;;;15.13;9.43;;;;;11.30;96588.00;;;;8275263;28;20204;-73
2023/04/30 02:47:44;;;;;;;13.32;9.38;;;;;11.30;96592.00;;;;8275398;28;20201;-72
2023/04/30 02:51:51;;;;;;;14.13;9.70;;;;;11.30;96591.00;;;;8275156;28;20236;-73
2023/04/30 02:55:58;;;;;;;14.70;9.70;;;;;11.30;96591.00;;;;8269386;28;20209;-72
2023/04/30 03:00:01;;;;;;;17.85;9.98;;;;;11.30;96599.00;;;;8259348;28;20207;-72
2023/04/30 03:04:05;;;;;;;16.98;10.70;;;;;11.30;96604.00;;;;8300901;23;20237;-74
2023/04/30 03:08:13;;;;;;;18.63;12.65;;;;;11.30;96590.00;;;;8264183;28;20194;-74
2023/04/30 03:12:16;;;;;;;16.00;11.15;;;;;11.30;96598.00;;;;8278619;28;20296;-74
2023/04/30 03:16:21;;;;;;;18.23;11.30;;;;;11.30;96597.00;;;;8287796;28;20197;-74
2023/04/30 03:20:24;;;;;;;19.85;11.25;;;;;11.30;96595.00;;;;8283891;28;20686;-75
2023/04/30 03:24:31;;;;;;;16.83;10.88;;;;;11.30;96603.00;;;;8251422;28;20203;-74
2023/04/30 03:28:34;;;;;;;18.20;11.25;;;;;11.30;96612.00;;;;8283267;28;20199;-74
2023/04/30 03:32:39;;;;;;;23.00;12.25;;;;;11.40;96598.00;;;;8288969;28;20244;-74
2023/04/30 03:36:42;;;;;;;18.02;11.07;;;;;11.40;96596.00;;;;8281511;28;20644;-73
2023/04/30 03:40:47;;;;;;;17.55;11.02;;;;;11.40;96604.00;;;;8287497;28;20404;-74
2023/04/30 03:44:53;;;;;;;22.00;11.15;;;;;11.30;96607.00;;;;8281780;28;20201;-73
2023/04/30 03:48:56;;;;;;;19.58;12.18;;;;;11.30;96597.00;;;;8284451;28;20197;-74
2023/04/30 03:53:02;;;;;;;20.65;12.60;;;;;11.20;96595.00;;;;8285015;28;20207;-74
2023/04/30 03:57:09;;;;;;;21.50;12.40;;;;;11.20;96600.00;;;;8289632;28;20199;-73
2023/04/30 04:01:12;;;;;;;19.00;12.48;;;;;11.00;96597.00;;;;8284747;28;20276;-74
2023/04/30 04:05:20;;;;;;;22.92;12.68;;;;;11.00;96593.00;;;;8256254;28;20204;-74
2023/04/30 04:09:23;;;;;;;22.98;12.85;;;;;10.80;96595.00;;;;8252993;28;20222;-72
2023/04/30 04:13:33;;;;;;;24.05;13.63;;;;;10.80;96597.00;;;;8252382;28;20201;-73
2023/04/30 04:17:38;;;;;;;20.75;13.98;;;;;10.70;96597.00;;;;8254231;28;20758;-73
2023/04/30 04:21:43;;;;;;;20.58;12.55;;;;;10.70;96600.00;;;;8254940;28;20211;-73
2023/04/30 04:25:48;;;;;;;20.70;13.13;;;;;10.70;96606.00;;;;8255528;28;20878;-73
2023/04/30 04:29:55;;;;;;;22.52;12.75;;;;;10.70;96609.00;;;;8256480;28;20231;-72
2023/04/30 04:34:01;;;;;;;23.52;13.25;;;;;10.70;96610.00;;;;8267812;28;20200;-73
2023/04/30 04:38:04;;;;;;;24.23;13.88;;;;;10.70;96619.00;;;;8224847;28;20297;-72
2023/04/30 04:42:08;;;;;;;19.52;12.85;;;;;10.80;96623.00;;;;8255984;28;20254;-73
2023/04/30 04:46:15;;;;;;;21.45;14.10;;;;;10.80;96626.00;;;;8253308;28;20371;-73
2023/04/30 04:50:18;;;;;;;23.90;13.52;;;;;10.90;96631.00;;;;8250459;28;20237;-73
2023/04/30 04:54:23;;;;;;;21.83;13.60;;;;;11.00;96629.00;;;;8257766;28;20198;-74
2023/04/30 04:58:26;;;;;;;21.40;13.90;;;;;11.00;96630.00;;;;8257459;28;20678;-74
2023/04/30 05:02:30;;;;;;;20.40;13.30;;;;;11.10;96627.00;;;;8258240;28;20281;-75
2023/04/30 05:06:34;;;;;;;20.13;13.20;;;;;11.20;96629.00;;;;8238156;28;20233;-73
2023/04/30 05:10:37;;;;;;;22.25;13.93;;;;;11.40;96636.00;;;;8255756;28;20239;-74
2023/04/30 05:14:44;;;;;;;20.88;12.65;;;;;11.50;96635.00;;;;8257257;28;20199;-73
2023/04/30 05:18:51;;;;;;;19.17;12.07;;;;;11.70;96635.00;;;;8254418;28;20215;-74
2023/04/30 05:22:54;;;;;;;21.95;12.18;;;;;11.60;96635.00;;;;8261016;28;20259;-72
2023/04/30 05:26:57;;;;;;;29.52;13.57;;;;;11.50;96634.00;;;;8244787;28;20273;-74
2023/04/30 05:31:00;;;;;;;23.65;12.70;;;;;11.40;96637.00;;;;8254852;28;20284;-74
2023/04/30 05:35:05;;;;;;;22.88;14.52;;;;;11.20;96646.00;;;;8255960;28;20754;-73
2023/04/30 05:39:12;;;;;;;24.02;13.90;;;;;11.30;96645.00;;;;8238232;28;20203;-73
2023/04/30 05:43:15;;;;;;;21.55;14.23;;;;;11.40;96651.00;;;;8255683;28;20197;-74
2023/04/30 05:47:18;;;;;;;22.17;13.75;;;;;11.60;96646.00;;;;8255180;28;20199;-74
2023/04/30 05:51:26;;;;;;;24.35;14.77;;;;;11.80;96654.00;;;;8254446;28;20234;-73
2023/04/30 05:55:29;;;;;;;26.08;13.90;;;;;11.90;96663.00;;;;8252014;28;20256;-73
2023/04/30 05:59:32;;;;;;;22.65;14.15;;;;;12.10;96665.00;;;;8255203;28;20255;-73
2023/04/30 06:03:35;;;;;;;22.83;13.55;;;;;12.30;96666.00;;;;8249628;28;20244;-73
2023/04/30 06:07:42;;;;;;;21.77;13.70;;;;;12.50;96659.00;;;;8251738;28;20208;-73
2023/04/30 06:11:49;;;;;;;20.20;13.55;;;;;12.60;96664.00;;;;8254067;28;20261;-72
2023/04/30 06:15:52;;;;;;;24.65;14.13;;;;;12.70;96654.00;;;;8250855;28;20199;-72
2023/04/30 06:19:57;;;;;;;23.42;13.88;;;;;12.90;96659.00;;;;8254304;28;20202;-72
2023/04/30 06:24:04;;;;;;;25.30;14.25;;;;;13.20;96658.00;;;;8251611;28;20198;-72
2023/04/30 06:28:08;;;;;;;20.35;13.70;;;;;13.40;96660.00;;;;8246552;28;20648;-72
2023/04/30 06:32:11;;;;;;;20.17;13.35;;;;;13.40;96663.00;;;;8249549;28;20245;-72
2023/04/30 06:36:17;;;;;;;21.13;13.63;;;;;13.50;96656.00;;;;8232273;28;20231;-73
2023/04/30 06:40:22;;;;;;;20.83;14.10;;;;;13.70;96655.00;;;;8247770;28;20206;-73
2023/04/30 06:44:28;;;;;;;24.23;14.48;;;;;13.70;96656.00;;;;8249065;28;20194;-73
2023/04/30 06:48:39;;;;;;;21.35;14.15;;;;;13.90;96657.00;;;;8253633;28;20220;-72
2023/04/30 06:52:42;;;;;;;22.02;14.93;;;;;14.10;96662.00;;;;8253342;28;20226;-74
2023/04/30 06:56:46;;;;;;;20.17;13.60;;;;;14.20;96665.00;;;;8242178;28;21091;-74
2023/04/30 07:00:52;;;;;;;20.30;13.73;;;;;14.30;96659.00;;;;8248354;28;20202;-72
2023/04/30 07:04:55;;;;;;;20.48;12.88;;;;;14.50;96662.00;;;;8241354;28;20203;-73
2023/04/30 07:09:02;;;;;;;21.75;13.95;;;;;14.30;96657.00;;;;8249334;28;20207;-72
2023/04/30 07:13:08;;;;;;;18.58;12.90;;;;;14.50;96665.00;;;;8221919;28;20225;-72
2023/04/30 07:17:11;;;;;;;18.83;12.73;;;;;14.70;96674.00;;;;8244763;28;20195;-73
2023/04/30 07:21:16;;;;;;;18.15;12.40;;;;;15.10;96662.00;;;;8232476;28;20203;-72
2023/04/30 07:25:20;;;;;;;14.73;11.00;;;;;16.00;96662.00;;;;8238079;28;20196;-71
2023/04/30 07:29:25;;;;;;;17.50;10.98;;;;;17.00;96658.00;;;;8242664;28;20207;-74
2023/04/30 07:33:29;;;;;;;15.20;10.98;;;;;17.40;96660.00;;;;8243615;28;20644;-74
2023/04/30 07:37:34;;;;;;;13.85;10.27;;;;;18.40;96669.00;;;;8238736;28;20936;-79
2023/04/30 07:41:42;;;;;;;13.98;9.82;;;;;19.20;96677.00;;;;8242330;28;20195;-75
2023/04/30 07:45:48;;;;;;;14.43;10.85;;;;;19.30;96667.00;;;;8246251;28;20198;-71
2023/04/30 07:49:56;;;;;;;12.75;9.25;;;;;19.00;96672.00;;;;8254129;28;20230;-71
2023/04/30 07:54:00;;;;;;;14.63;9.20;;;;;18.50;96675.00;;;;8256019;28;20227;-71
2023/04/30 07:58:03;;;;;;;16.02;8.85;;;;;18.20;96667.00;;;;8253408;28;20288;-71
2023/04/30 08:02:09;;;;;;;13.55;9.30;;;;;18.10;96674.00;;;;8247501;28;20897;-71
2023/04/30 08:06:12;;;;;;;11.90;6.97;;;;;17.80;96676.00;;;;8258889;28;20202;-72
2023/04/30 08:10:18;;;;;;;9.10;7.20;;;;;17.30;96676.00;;;;8252400;28;20715;-72
2023/04/30 08:14:22;;;;;;;9.60;6.68;;;;;16.80;96674.00;;;;8242942;28;20230;-72
2023/04/30 08:18:27;;;;;;;8.70;7.05;;;;;16.50;96677.00;;;;8253869;28;20198;-71
2023/04/30 08:22:34;;;;;;;7.65;6.18;;;;;16.20;96678.00;;;;8257313;28;20291;-71
2023/04/30 08:26:37;;;;;;;11.30;7.28;;;;;16.40;96683.00;;;;8245553;28;20206;-71
2023/04/30 08:30:42;;;;;;;10.65;8.23;;;;;16.70;96671.00;;;;8245263;28;20671;-71
2023/04/30 08:34:46;;;;;;;11.48;8.45;;;;;16.70;96674.00;;;;8242048;28;20293;-72
2023/04/30 08:38:49;;;;;;;12.60;7.80;;;;;16.70;96671.00;;;;8253107;28;20529;-72
2023/04/30 08:43:03;;;;;;;11.25;6.43;;;;;17.20;96680.00;;;;8253916;28;20651;-72
2023/04/30 08:47:08;;;;;;;7.47;5.97;;;;;17.30;96679.00;;;;8246802;28;20895;-68
2023/04/30 08:51:13;;;;;;;11.25;6.72;;;;;17.60;96671.00;;;;8254657;28;20615;-68
2023/04/30 08:55:16;;;;;;;11.27;6.88;;;;;17.30;96676.00;;;;8241805;28;20199;-70
2023/04/30 08:59:19;;;;;;;9.07;6.65;;;;;17.30;96681.00;;;;8252047;28;21774;-69
2023/04/30 09:03:22;;;;;;;7.15;6.05;;;;;17.00;96674.00;;;;8250837;28;20262;-69
2023/04/30 09:07:31;;;;;;;14.90;5.78;;;;;16.80;96679.00;;;;8258866;28;20604;-69
2023/04/30 09:11:37;;;;;;;4.80;4.20;;;;;17.40;96678.00;;;;8254980;28;20210;-70
2023/04/30 09:15:44;;;;;;;6.50;5.60;;;;;18.50;96689.00;;;;8256816;28;20211;-69
2023/04/30 09:19:48;;;;;;;10.38;6.22;;;;;18.00;96683.00;;;;8253986;28;20203;-70
2023/04/30 09:24:00;;;;;;;7.70;5.60;;;;;17.60;96685.00;;;;8253352;28;20203;-69
2023/04/30 09:28:10;;;;;;;8.35;6.45;;;;;17.20;96690.00;;;;8257837;28;20203;-69
2023/04/30 09:32:15;;;;;;;11.40;7.00;;;;;16.90;96680.00;;;;8246705;28;20849;-70
2023/04/30 09:36:22;;;;;;;10.77;7.05;;;;;17.20;96685.00;;;;8253339;28;20249;-70
2023/04/30 09:40:37;;;;;;;10.63;6.88;;;;;17.50;96682.00;;;;8254276;28;20187;-69
2023/04/30 09:44:43;;;;;;;8.85;5.55;;;;;17.60;96691.00;;;;8252126;28;20332;-69
2023/04/30 09:48:48;;;;;;;6.47;5.85;;;;;17.70;96682.00;;;;8254179;28;20596;-69
2023/04/30 09:52:53;;;;;;;7.93;5.85;;;;;17.90;96683.00;;;;8254703;28;20227;-69
2023/04/30 09:57:02;;;;;;;10.60;4.75;;;;;17.80;96681.00;;;;8252040;28;20211;-69
2023/04/30 10:01:07;;;;;;;9.90;5.50;;;;;17.90;96679.00;;;;8250142;28;20269;-71
2023/04/30 10:05:10;;;;;;;6.22;5.45;;;;;18.10;96676.00;;;;8251367;28;20636;-70
2023/04/30 10:09:14;;;;;;;6.07;5.50;;;;;18.50;96673.00;;;;8256968;28;20194;-70
2023/04/30 10:13:21;;;;;;;6.85;5.10;;;;;18.60;96680.00;;;;8240194;28;20218;-69
2023/04/30 10:17:27;;;;;;;6.00;5.00;;;;;18.10;96683.00;;;;8251973;28;20199;-69
2023/04/30 10:21:32;;;;;;;8.88;5.25;;;;;18.00;96679.00;;;;8262621;28;20302;-69
2023/04/30 10:25:39;;;;;;;6.40;5.25;;;;;18.00;96676.00;;;;8246758;28;20215;-68
2023/04/30 10:29:46;;;;;;;8.48;6.13;;;;;18.80;96673.00;;;;8244876;28;20206;-69
2023/04/30 10:34:02;;;;;;;7.57;5.13;;;;;19.70;96665.00;;;;8242938;28;20226;-68
2023/04/30 10:38:20;;;;;;;5.45;4.80;;;;;20.30;96656.00;;;;8241941;28;20577;-69
2023/04/30 10:42:27;;;;;;;5.97;4.13;;;;;21.60;96654.00;;;;8246907;28;20608;-69
2023/04/30 10:46:34;;;;;;;5.57;3.70;;;;;23.30;96652.00;;;;8250183;28;20214;-70
2023/04/30 10:50:43;;;;;;;6.45;3.80;;;;;24.30;96641.00;;;;8245027;28;20844;-70
2023/04/30 10:54:50;;;;;;;3.95;3.38;;;;;23.60;96645.00;;;;8241178;28;20659;-70
2023/04/30 10:59:00;;;;;;;4.07;3.58;;;;;22.90;96648.00;;;;8244925;28;20265;-69
2023/04/30 11:03:04;;;;;;;3.58;3.28;;;;;21.90;96650.00;;;;8253845;28;20651;-69
2023/04/30 11:07:09;;;;;;;4.05;3.60;;;;;21.60;96645.00;;;;8260600;28;20301;-69
2023/04/30 11:11:20;;;;;;;6.40;3.38;;;;;21.20;96637.00;;;;8246745;28;20245;-69
2023/04/30 11:15:26;;;;;;;6.20;3.60;;;;;21.70;96643.00;;;;8233714;28;20333;-69
2023/04/30 11:19:33;;;;;;;3.85;3.53;;;;;21.20;96644.00;;;;8254150;28;20294;-69
2023/04/30 11:23:37;;;;;;;4.85;3.55;;;;;20.80;96637.00;;;;8223570;28;20206;-69
2023/04/30 11:27:45;;;;;;;3.60;3.33;;;;;20.50;96632.00;;;;8245212;28;20249;-68
2023/04/30 11:31:48;;;;;;;4.25;3.60;;;;;20.50;96631.00;;;;8245730;28;20277;-68
2023/04/30 11:35:57;;;;;;;4.25;3.42;;;;;21.50;96639.00;;;;8249504;28;20238;-69
2023/04/30 11:40:02;;;;;;;6.30;3.60;;;;;21.50;96627.00;;;;8249839;28;20672;-69
2023/04/30 11:44:22;;;;;;;4.13;3.80;;;;;22.20;96625.00;;;;8250948;28;20201;-68
2023/04/30 11:48:31;;;;;;;4.65;3.78;;;;;21.80;96621.00;;;;8246090;28;20192;-68
2023/04/30 11:52:43;;;;;;;7.07;3.60;;;;;22.30;96618.00;;;;8241942;28;20224;-69
2023/04/30 11:56:53;;;;;;;3.78;3.45;;;;;21.80;96624.00;;;;8239995;28;20203;-70
2023/04/30 12:01:02;;;;;;;7.45;3.75;;;;;21.90;96620.00;;;;8239742;28;20286;-71
2023/04/30 12:05:12;;;;;;;5.43;3.67;;;;;21.50;96624.00;;;;8248815;28;20203;-70
2023/04/30 12:09:16;;;;;;;7.97;3.80;;;;;21.30;96608.00;;;;8248422;28;20245;-71
2023/04/30 12:13:20;;;;;;;5.65;3.70;;;;;21.10;96611.00;;;;8254055;28;20223;-70
2023/04/30 12:17:33;;;;;;;4.70;3.30;;;;;21.20;96609.00;;;;8254894;28;20639;-70
2023/04/30 12:21:37;;;;;;;3.72;3.25;;;;;21.80;96605.00;;;;8241160;28;20207;-69
2023/04/30 12:25:42;;;;;;;3.85;3.10;;;;;22.10;96609.00;;;;8251986;28;20244;-70
2023/04/30 12:29:47;;;;;;;3.10;2.72;;;;;22.30;96604.00;;;;8250929;28;20212;-71
2023/04/30 12:33:58;;;;;;;4.05;2.92;;;;;22.10;96608.00;;;;8248204;28;20277;-71
2023/04/30 12:38:06;;;;;;;3.85;3.03;;;;;22.00;96599.00;;;;8256872;28;20939;-70
2023/04/30 12:42:11;;;;;;;4.05;2.97;;;;;22.10;96600.00;;;;8248081;28;20204;-71
2023/04/30 12:46:26;;;;;;;3.35;3.10;;;;;22.60;96597.00;;;;8256014;28;20226;-70
2023/04/30 12:50:31;;;;;;;3.25;2.95;;;;;22.90;96589.00;;;;8255078;28;20673;-70
2023/04/30 12:54:38;;;;;;;3.45;3.15;;;;;22.90;96598.00;;;;8234406;28;20276;-70
2023/04/30 12:58:46;;;;;;;3.42;2.75;;;;;21.80;96594.00;;;;8255207;28;20653;-71
2023/04/30 13:02:54;;;;;;;3.80;2.70;;;;;20.90;96589.00;;;;8245569;28;20227;-71
2023/04/30 13:07:00;;;;;;;3.53;2.50;;;;;20.50;96583.00;;;;8252506;28;20334;-71
2023/04/30 13:11:03;;;;;;;3.70;2.80;;;;;20.70;96582.00;;;;8252845;28;20219;-70
2023/04/30 13:15:11;;;;;;;2.55;2.35;;;;;20.60;96565.00;;;;8255256;28;20234;-71
2023/04/30 13:19:14;;;;;;;5.35;2.60;;;;;20.70;96564.00;;;;8253902;28;20716;-70
2023/04/30 13:23:19;;;;;;;3.58;3.13;;;;;20.70;96556.00;;;;8253368;28;20199;-70
2023/04/30 13:27:22;;;;;;;3.50;2.85;;;;;21.20;96560.00;;;;8252535;28;20207;-70
2023/04/30 13:31:27;;;;;;;6.00;2.80;;;;;21.40;96560.00;;;;8255186;28;20600;-70
2023/04/30 13:35:30;;;;;;;4.18;2.40;;;;;20.80;96551.00;;;;8248886;28;20235;-70
2023/04/30 13:39:40;;;;;;;2.40;2.30;;;;;20.30;96560.00;;;;8256420;28;20203;-70
2023/04/30 13:43:46;;;;;;;4.75;2.38;;;;;20.00;96550.00;;;;8251598;28;20211;-70
2023/04/30 13:47:51;;;;;;;2.85;2.65;;;;;20.40;96545.00;;;;8252516;28;20265;-70
2023/04/30 13:51:54;;;;;;;4.35;2.50;;;;;22.20;96546.00;;;;8242462;28;20207;-70
2023/04/30 13:56:02;;;;;;;8.63;2.80;;;;;22.90;96553.00;;;;8241771;28;20254;-70
2023/04/30 14:00:08;;;;;;;3.08;2.45;;;;;22.40;96543.00;;;;8246124;28;20559;-70
2023/04/30 14:04:13;;;;;;;3.00;2.35;;;;;22.20;96537.00;;;;8219390;28;20313;-70
2023/04/30 14:08:17;;;;;;;2.55;2.20;;;;;22.10;96536.00;;;;8215624;28;20654;-68
2023/04/30 14:12:24;;;;;;;2.47;2.28;;;;;22.60;96546.00;;;;8215870;28;20967;-73
2023/04/30 14:16:27;;;;;;;2.35;2.25;;;;;21.90;96531.00;;;;8219654;28;20627;-68
2023/04/30 14:20:32;;;;;;;2.50;2.30;;;;;22.00;96526.00;;;;8219133;28;20209;-69
2023/04/30 14:24:35;;;;;;;2.33;2.22;;;;;22.40;96520.00;;;;8218984;28;20250;-69
2023/04/30 14:28:38;;;;;;;2.40;2.30;;;;;22.60;96526.00;;;;8220026;28;20888;-69
2023/04/30 14:32:43;;;;;;;2.80;2.60;;;;;23.00;96523.00;;;;8218604;28;20207;-69
2023/04/30 14:36:50;;;;;;;3.55;2.40;;;;;23.60;96516.00;;;;8223215;28;20221;-68
2023/04/30 14:40:58;;;;;;;3.63;2.60;;;;;24.20;96507.00;;;;8213548;28;20223;-68
2023/04/30 14:45:03;;;;;;;2.28;2.08;;;;;25.00;96509.00;;;;8215140;28;20208;-67
2023/04/30 14:49:06;;;;;;;2.30;2.20;;;;;25.70;96509.00;;;;8198382;28;20200;-68
2023/04/30 14:53:11;;;;;;;2.13;2.00;;;;;25.20;96495.00;;;;8214220;28;20199;-67
2023/04/30 14:57:17;;;;;;;2.47;2.30;;;;;25.20;96493.00;;;;8221447;28;20250;-67
2023/04/30 15:01:20;;;;;;;2.25;2.15;;;;;24.90;96490.00;;;;8223836;28;20227;-68
2023/04/30 15:05:24;;;;;;;3.08;2.47;;;;;24.90;96484.00;;;;8251762;28;20245;-67
2023/04/30 15:09:29;;;;;;;2.30;2.10;;;;;24.90;96476.00;;;;8242237;28;20199;-66
2023/04/30 15:13:37;;;;;;;2.25;2.15;;;;;24.90;96484.00;;;;8233081;28;20675;-66
2023/04/30 15:17:43;;;;;;;3.55;2.10;;;;;24.00;96488.00;;;;8246530;28;20230;-66
2023/04/30 15:21:47;;;;;;;2.30;2.20;;;;;23.10;96480.00;;;;8247503;28;20205;-67
2023/04/30 15:26:09;;;;;;;2.88;2.47;;;;;22.90;96478.00;;;;8238275;28;20206;-67
2023/04/30 15:30:13;;;;;;;4.72;2.30;;;;;22.70;96486.00;;;;8262973;28;20206;-67
2023/04/30 15:34:16;;;;;;;3.28;2.00;;;;;22.10;96489.00;;;;8253696;28;20219;-67
2023/04/30 15:38:20;;;;;;;8.02;2.25;;;;;21.60;96489.00;;;;8251658;28;20266;-70
2023/04/30 15:42:27;;;;;;;2.40;2.10;;;;;21.20;96491.00;;;;8245053;28;20242;-68
2023/04/30 15:46:33;;;;;;;5.18;2.38;;;;;20.60;96491.00;;;;8243037;28;20232;-68
2023/04/30 15:50:36;;;;;;;2.67;2.50;;;;;20.60;96485.00;;;;8245978;28;20628;-68
2023/04/30 15:54:41;;;;;;;2.55;2.38;;;;;21.00;96471.00;;;;8247291;28;20226;-68
2023/04/30 15:58:46;;;;;;;4.38;2.65;;;;;22.00;96468.00;;;;8239056;28;20249;-70
2023/04/30 16:02:49;;;;;;;2.70;2.50;;;;;22.90;96466.00;;;;8243065;28;20238;-66
2023/04/30 16:06:52;;;;;;;2.53;2.35;;;;;23.30;96467.00;;;;8250217;28;20230;-66
2023/04/30 16:11:00;;;;;;;2.40;2.20;;;;;22.90;96465.00;;;;8247041;28;20211;-67
2023/04/30 16:15:12;;;;;;;5.18;2.15;;;;;22.00;96470.00;;;;8246551;28;20249;-68
2023/04/30 16:19:19;;;;;;;3.25;2.25;;;;;21.20;96464.00;;;;8244315;28;20237;-67
2023/04/30 16:23:24;;;;;;;3.35;2.40;;;;;20.50;96472.00;;;;8249964;28;20789;-67
2023/04/30 16:27:27;;;;;;;2.15;2.03;;;;;20.20;96464.00;;;;8243274;28;20617;-66
2023/04/30 16:31:31;;;;;;;2.33;2.22;;;;;20.50;96457.00;;;;8247685;28;20258;-67
2023/04/30 16:35:34;;;;;;;3.15;2.25;;;;;21.20;96449.00;;;;8245362;28;20441;-69
2023/04/30 16:39:39;;;;;;;2.67;2.35;;;;;21.70;96447.00;;;;8249352;28;20605;-68
2023/04/30 16:43:50;;;;;;;2.50;2.30;;;;;21.80;96444.00;;;;8250842;28;20717;-68
2023/04/30 16:47:55;;;;;;;4.03;2.28;;;;;21.80;96437.00;;;;8249946;28;20600;-67
2023/04/30 16:51:58;;;;;;;2.40;2.30;;;;;21.60;96446.00;;;;8248305;28;20242;-69
2023/04/30 16:56:02;;;;;;;2.35;2.25;;;;;21.50;96452.00;;;;8252384;28;20223;-68
2023/04/30 17:00:07;;;;;;;2.08;1.98;;;;;21.60;96451.00;;;;8234207;28;20195;-68
2023/04/30 17:04:13;;;;;;;3.83;2.35;;;;;21.60;96460.00;;;;8219380;28;20231;-69
2023/04/30 17:08:19;;;;;;;2.25;2.13;;;;;21.60;96446.00;;;;8223254;28;20203;-69
2023/04/30 17:12:26;;;;;;;2.95;2.47;;;;;21.40;96453.00;;;;8219992;28;21067;-68
2023/04/30 17:16:29;;;;;;;2.80;2.60;;;;;21.10;96456.00;;;;8220721;28;20255;-69
2023/04/30 17:20:35;;;;;;;2.97;2.20;;;;;20.80;96454.00;;;;8227362;28;20224;-68
2023/04/30 17:24:41;;;;;;;3.75;2.58;;;;;20.40;96454.00;;;;8221775;28;20207;-69
2023/04/30 17:28:44;;;;;;;2.50;2.30;;;;;20.00;96454.00;;;;8228741;28;20199;-70
2023/04/30 17:32:48;;;;;;;3.42;3.17;;;;;19.60;96448.00;;;;8199675;28;20227;-68
2023/04/30 17:36:53;;;;;;;2.88;2.67;;;;;19.10;96443.00;;;;8217845;28;20231;-68
2023/04/30 17:40:57;;;;;;;3.40;3.20;;;;;18.60;96433.00;;;;8223094;28;20601;-67
2023/04/30 17:45:03;;;;;;;2.35;2.25;;;;;18.20;96436.00;;;;8226006;28;20254;-68
2023/04/30 17:49:07;;;;;;;3.08;2.67;;;;;17.80;96439.00;;;;8241263;28;20226;-66
2023/04/30 17:53:12;;;;;;;3.38;2.90;;;;;17.60;96428.00;;;;8231693;28;20211;-67
2023/04/30 17:57:15;;;;;;;3.22;2.92;;;;;17.30;96434.00;;;;8253041;28;20230;-68
2023/04/30 18:01:18;;;;;;;9.20;4.18;;;;;17.00;96434.00;;;;8254656;28;20221;-67
2023/04/30 18:05:26;;;;;;;13.65;6.65;;;;;16.80;96431.00;;;;8284404;28;20208;-68
2023/04/30 18:09:32;;;;;;;7.90;4.55;;;;;16.50;96430.00;;;;8280447;28;20199;-68
2023/04/30 18:13:37;;;;;;;14.88;6.60;;;;;16.30;96438.00;;;;8260805;28;20659;-67
2023/04/30 18:17:43;;;;;;;10.20;5.03;;;;;16.10;96432.00;;;;8283554;28;20230;-67
2023/04/30 18:21:47;;;;;;;6.05;3.85;;;;;15.90;96432.00;;;;8278730;28;20608;-67
2023/04/30 18:25:51;;;;;;;3.55;2.85;;;;;15.60;96423.00;;;;8251653;28;20213;-67
2023/04/30 18:29:56;;;;;;;6.03;3.72;;;;;15.50;96430.00;;;;8278215;28;20205;-67
2023/04/30 18:33:59;;;;;;;4.53;3.22;;;;;15.30;96436.00;;;;8286173;28;20228;-67
2023/04/30 18:38:16;;;;;;;5.40;3.28;;;;;15.20;96435.00;;;;8283683;28;20238;-67
2023/04/30 18:42:22;;;;;;;3.53;3.15;;;;;15.10;96429.00;;;;8283634;28;20194;-67
2023/04/30 18:46:25;;;;;;;3.80;2.60;;;;;15.00;96435.00;;;;8281909;28;20269;-67
2023/04/30 18:50:31;;;;;;;2.92;2.60;;;;;15.00;96435.00;;;;8287078;28;20232;-67
2023/04/30 18:54:35;;;;;;;4.47;2.40;;;;;14.90;96438.00;;;;8294843;28;20579;-67
2023/04/30 18:58:39;;;;;;;2.35;2.15;;;;;14.90;96436.00;;;;8293264;28;20287;-66
2023/04/30 19:02:42;;;;;;;2.72;2.40;;;;;14.80;96436.00;;;;8292623;28;20233;-66
2023/04/30 19:06:48;;;;;;;4.65;2.22;;;;;14.70;96441.00;;;;8302139;28;20284;-66
2023/04/30 19:11:10;;;;;;;2.45;2.25;;;;;14.60;96439.00;;;;8283353;28;20212;-66
2023/04/30 19:20:31;;;;;;;2.70;1.83;;;;;14.40;96453.00;;;;8251622;28;20501;-66
2023/04/30 19:29:21;;;;;;;3.28;2.30;;;;;14.20;96448.00;;;;8284230;28;20292;-66
2023/04/30 19:33:27;;;;;;;2.33;2.13;;;;;14.10;96438.00;;;;8296237;28;20198;-66
2023/04/30 19:38:12;;;;;;;4.32;2.20;;;;;14.00;96442.00;;;;8278714;28;20226;-66
2023/04/30 19:43:08;;;;;;;4.40;2.28;;;;;13.80;96446.00;;;;8274267;28;20596;-66
2023/04/30 19:56:51;;;;;;;4.03;2.15;;;;;13.10;96455.00;;;;8271082;28;20370;-67
2023/04/30 20:01:17;;;;;;;2.92;2.60;;;;;13.00;96451.00;;;;8260652;28;20213;-66
2023/04/30 20:10:39;;;;;;;2.63;2.40;;;;;12.80;96455.00;;;;8273111;28;20203;-66
2023/04/30 20:14:50;;;;;;;4.57;2.95;;;;;12.60;96455.00;;;;8291521;28;20196;-67
2023/04/30 20:18:53;;;;;;;4.82;2.53;;;;;12.50;96466.00;;;;8293430;28;20265;-67
2023/04/30 20:22:58;;;;;;;2.65;2.42;;;;;12.10;96457.00;;;;8285473;28;20204;-67
2023/04/30 20:27:02;;;;;;;3.33;2.35;;;;;11.80;96464.00;;;;8284939;28;20796;-69
2023/04/30 20:31:08;;;;;;;2.50;2.30;;;;;11.60;96450.00;;;;8285428;28;20781;-69
2023/04/30 20:35:13;;;;;;;3.65;2.80;;;;;11.40;96449.00;;;;8271973;28;20202;-69
2023/04/30 20:39:16;;;;;;;2.60;2.40;;;;;11.40;96458.00;;;;8276406;28;20202;-69
2023/04/30 20:43:23;;;;;;;2.63;2.25;;;;;11.50;96445.00;;;;8278639;28;20196;-69
2023/04/30 20:47:27;;;;;;;2.47;2.25;;;;;11.60;96449.00;;;;8283349;28;20201;-70